sensor_id;sensor_type;location;lat;lon;timestamp;pressure;altitude;pressure_sealevel;temperature;humidity
63819;BME280;49970;54.976;73.248;2023-10-13T00:00:30;100822.41;;;0.66;80.14
63819;BME280;49970;54.976;73.248;2023-10-13T00:03:00;100818.22;;;0.60;80.67
63819;BME280;49970;54.976;73.248;2023-10-13T00:05:27;100818.31;;;0.56;80.82
63819;BME280;49970;54.976;73.248;2023-10-13T00:07:54;100811.38;;;0.55;80.64
63819;BME280;49970;54.976;73.248;2023-10-13T00:10:20;100826.19;;;0.53;81.16
63819;BME280;49970;54.976;73.248;2023-10-13T00:12:47;100824.50;;;0.50;80.92
63819;BME280;49970;54.976;73.248;2023-10-13T00:15:17;100818.38;;;0.53;80.99
63819;BME280;49970;54.976;73.248;2023-10-13T00:17:43;100820.06;;;0.54;80.64
63819;BME280;49970;54.976;73.248;2023-10-13T00:20:10;100814.88;;;0.54;80.68
63819;BME280;49970;54.976;73.248;2023-10-13T00:22:43;100815.81;;;0.51;80.67
63819;BME280;49970;54.976;73.248;2023-10-13T00:25:10;100811.44;;;0.52;81.01
63819;BME280;49970;54.976;73.248;2023-10-13T00:27:44;100815.81;;;0.49;80.74
63819;BME280;49970;54.976;73.248;2023-10-13T00:30:11;100812.41;;;0.46;81.46
63819;BME280;49970;54.976;73.248;2023-10-13T00:32:44;100823.75;;;0.45;81.33
63819;BME280;49970;54.976;73.248;2023-10-13T00:35:13;100810.81;;;0.40;80.96
63819;BME280;49970;54.976;73.248;2023-10-13T00:37:51;100820.28;;;0.44;81.51
63819;BME280;49970;54.976;73.248;2023-10-13T00:40:22;100813.38;;;0.43;80.91
63819;BME280;49970;54.976;73.248;2023-10-13T00:43:08;100814.22;;;0.44;81.29
63819;BME280;49970;54.976;73.248;2023-10-13T00:45:56;100814.22;;;0.44;81.15
63819;BME280;49970;54.976;73.248;2023-10-13T00:48:34;100810.75;;;0.43;81.59
63819;BME280;49970;54.976;73.248;2023-10-13T00:51:06;100810.75;;;0.43;81.00
63819;BME280;49970;54.976;73.248;2023-10-13T00:53:37;100813.38;;;0.43;81.54
63819;BME280;49970;54.976;73.248;2023-10-13T00:56:06;100810.84;;;0.39;81.32
63819;BME280;49970;54.976;73.248;2023-10-13T00:58:34;100793.66;;;0.30;81.30
63819;BME280;49970;54.976;73.248;2023-10-13T01:01:01;100804.81;;;0.37;81.61
63819;BME280;49970;54.976;73.248;2023-10-13T01:04:14;100810.97;;;0.33;81.37
63819;BME280;49970;54.976;73.248;2023-10-13T01:07:26;100804.91;;;0.32;81.10
63819;BME280;49970;54.976;73.248;2023-10-13T01:09:52;100797.06;;;0.34;80.92
63819;BME280;49970;54.976;73.248;2023-10-13T01:12:18;100793.69;;;0.29;81.60
63819;BME280;49970;54.976;73.248;2023-10-13T01:15:05;100791.06;;;0.29;81.67
63819;BME280;49970;54.976;73.248;2023-10-13T01:18:37;100793.78;;;0.26;81.63
63819;BME280;49970;54.976;73.248;2023-10-13T01:21:48;100786.81;;;0.24;81.18
63819;BME280;49970;54.976;73.248;2023-10-13T01:24:15;100794.63;;;0.24;81.33
63819;BME280;49970;54.976;73.248;2023-10-13T01:27:06;100799.09;;;0.19;80.95
63819;BME280;49970;54.976;73.248;2023-10-13T01:30:37;100777.69;;;0.05;81.27
63819;BME280;49970;54.976;73.248;2023-10-13T01:34:08;100792.31;;;0.11;81.07
63819;BME280;49970;54.976;73.248;2023-10-13T01:37:39;100805.19;;;0.18;81.27
63819;BME280;49970;54.976;73.248;2023-10-13T01:41:10;100804.31;;;0.19;81.45
63819;BME280;49970;54.976;73.248;2023-10-13T01:44:24;100801.59;;;0.26;81.46
63819;BME280;49970;54.976;73.248;2023-10-13T01:46:59;100777.59;;;0.10;81.04
63819;BME280;49970;54.976;73.248;2023-10-13T01:49:35;100784.34;;;0.18;81.06
63819;BME280;49970;54.976;73.248;2023-10-13T01:52:08;100804.28;;;0.21;80.99
63819;BME280;49970;54.976;73.248;2023-10-13T01:54:38;100809.41;;;0.26;80.97
63819;BME280;49970;54.976;73.248;2023-10-13T01:57:13;100810.28;;;0.24;80.72
63819;BME280;49970;54.976;73.248;2023-10-13T01:59:40;100802.44;;;0.26;80.84
63819;BME280;49970;54.976;73.248;2023-10-13T02:02:10;100801.59;;;0.24;80.74
63819;BME280;49970;54.976;73.248;2023-10-13T02:04:42;100807.59;;;0.28;80.70
63819;BME280;49970;54.976;73.248;2023-10-13T02:07:15;100808.50;;;0.25;80.90
63819;BME280;49970;54.976;73.248;2023-10-13T02:09:42;100802.53;;;0.21;80.90
63819;BME280;49970;54.976;73.248;2023-10-13T02:12:28;100798.97;;;0.26;80.89
63819;BME280;49970;54.976;73.248;2023-10-13T02:16:00;100800.59;;;0.31;81.20
63819;BME280;49970;54.976;73.248;2023-10-13T02:19:31;100802.28;;;0.32;80.72
63819;BME280;49970;54.976;73.248;2023-10-13T02:23:02;100803.09;;;0.36;81.13
63819;BME280;49970;54.976;73.248;2023-10-13T02:26:33;100801.28;;;0.39;80.72
63819;BME280;49970;54.976;73.248;2023-10-13T02:30:04;100798.56;;;0.44;80.82
63819;BME280;49970;54.976;73.248;2023-10-13T02:33:40;100798.56;;;0.44;80.89
63819;BME280;49970;54.976;73.248;2023-10-13T02:37:12;100794.28;;;0.41;80.76
63819;BME280;49970;54.976;73.248;2023-10-13T02:40:43;100798.56;;;0.44;80.58
63819;BME280;49970;54.976;73.248;2023-10-13T02:43:33;100805.28;;;0.54;80.21
63819;BME280;49970;54.976;73.248;2023-10-13T02:46:00;100799.06;;;0.61;80.70
63819;BME280;49970;54.976;73.248;2023-10-13T02:48:28;100805.00;;;0.68;80.45
63819;BME280;49970;54.976;73.248;2023-10-13T02:51:21;100807.34;;;0.80;79.90
63819;BME280;49970;54.976;73.248;2023-10-13T02:54:01;100808.78;;;0.92;79.51
63819;BME280;49970;54.976;73.248;2023-10-13T02:56:29;100814.59;;;1.03;79.46
63819;BME280;49970;54.976;73.248;2023-10-13T02:58:55;100794.81;;;0.94;79.78
63819;BME280;49970;54.976;73.248;2023-10-13T03:01:47;100824.63;;;1.21;79.24
63819;BME280;49970;54.976;73.248;2023-10-13T03:04:18;100822.50;;;1.36;79.31
63819;BME280;49970;54.976;73.248;2023-10-13T03:06:51;100824.81;;;1.48;78.98
63819;BME280;49970;54.976;73.248;2023-10-13T03:09:19;100822.81;;;1.58;78.53
63819;BME280;49970;54.976;73.248;2023-10-13T03:11:48;100823.34;;;1.70;78.68
63819;BME280;49970;54.976;73.248;2023-10-13T03:14:19;100810.16;;;1.75;78.65
63819;BME280;49970;54.976;73.248;2023-10-13T03:17:00;100817.47;;;1.95;78.31
63819;BME280;49970;54.976;73.248;2023-10-13T03:19:29;100816.22;;;2.08;78.39
63819;BME280;49970;54.976;73.248;2023-10-13T03:22:06;100811.63;;;2.18;78.14
63819;BME280;49970;54.976;73.248;2023-10-13T03:24:39;100808.66;;;2.30;77.76
63819;BME280;49970;54.976;73.248;2023-10-13T03:27:19;100805.66;;;2.42;77.56
63819;BME280;49970;54.976;73.248;2023-10-13T03:29:49;100801.81;;;2.56;77.71
63819;BME280;49970;54.976;73.248;2023-10-13T03:32:22;100797.06;;;2.67;77.25
63819;BME280;49970;54.976;73.248;2023-10-13T03:34:52;100798.13;;;2.89;77.55
63819;BME280;49970;54.976;73.248;2023-10-13T03:37:19;100796.69;;;3.07;77.41
63819;BME280;49970;54.976;73.248;2023-10-13T03:40:12;100793.81;;;3.15;76.92
63819;BME280;49970;54.976;73.248;2023-10-13T03:42:47;100798.44;;;3.33;76.64
63819;BME280;49970;54.976;73.248;2023-10-13T03:45:38;100798.03;;;3.45;75.58
63819;BME280;49970;54.976;73.248;2023-10-13T03:48:15;100791.47;;;3.59;75.30
63819;BME280;49970;54.976;73.248;2023-10-13T03:50:53;100788.31;;;3.74;75.60
63819;BME280;49970;54.976;73.248;2023-10-13T03:53:31;100788.81;;;3.85;75.13
63819;BME280;49970;54.976;73.248;2023-10-13T03:56:01;100782.09;;;4.02;74.54
63819;BME280;49970;54.976;73.248;2023-10-13T03:58:54;100772.78;;;4.16;73.49
63819;BME280;49970;54.976;73.248;2023-10-13T04:01:24;100768.97;;;4.25;73.32
63819;BME280;49970;54.976;73.248;2023-10-13T04:04:10;100775.28;;;4.43;72.99
63819;BME280;49970;54.976;73.248;2023-10-13T04:06:38;100779.28;;;4.53;71.99
63819;BME280;49970;54.976;73.248;2023-10-13T04:09:17;100759.63;;;4.63;71.19
63819;BME280;49970;54.976;73.248;2023-10-13T04:12:04;100771.03;;;4.84;70.86
63819;BME280;49970;54.976;73.248;2023-10-13T04:14:35;100767.53;;;5.06;70.19
63819;BME280;49970;54.976;73.248;2023-10-13T04:17:14;100757.16;;;5.24;70.25
63819;BME280;49970;54.976;73.248;2023-10-13T04:19:44;100753.03;;;5.39;69.62
63819;BME280;49970;54.976;73.248;2023-10-13T04:22:28;100745.41;;;5.54;69.69
63819;BME280;49970;54.976;73.248;2023-10-13T04:27:57;100760.13;;;5.58;68.20
63819;BME280;49970;54.976;73.248;2023-10-13T04:33:25;100760.25;;;5.55;67.37
63819;BME280;49970;54.976;73.248;2023-10-13T04:36:11;100748.75;;;5.57;66.64
63819;BME280;49970;54.976;73.248;2023-10-13T04:38:46;100748.69;;;5.59;66.36
63819;BME280;49970;54.976;73.248;2023-10-13T04:41:29;100747.63;;;5.63;67.10
63819;BME280;49970;54.976;73.248;2023-10-13T04:44:16;100747.38;;;5.69;67.31
63819;BME280;49970;54.976;73.248;2023-10-13T04:47:01;100741.72;;;5.78;66.39
63819;BME280;49970;54.976;73.248;2023-10-13T04:49:29;100747.59;;;5.83;66.49
63819;BME280;49970;54.976;73.248;2023-10-13T04:52:05;100743.66;;;5.93;65.96
63819;BME280;49970;54.976;73.248;2023-10-13T04:54:39;100733.47;;;6.06;66.45
63819;BME280;49970;54.976;73.248;2023-10-13T04:57:18;100738.94;;;6.20;65.50
63819;BME280;49970;54.976;73.248;2023-10-13T05:00:04;100729.00;;;6.27;65.67
63819;BME280;49970;54.976;73.248;2023-10-13T05:02:41;100722.81;;;6.28;64.90
63819;BME280;49970;54.976;73.248;2023-10-13T05:05:14;100723.09;;;6.41;65.67
63819;BME280;49970;54.976;73.248;2023-10-13T05:07:40;100723.00;;;6.42;65.21
63819;BME280;49970;54.976;73.248;2023-10-13T05:10:25;100721.72;;;6.51;64.93
63819;BME280;49970;54.976;73.248;2023-10-13T05:13:10;100714.38;;;6.58;64.50
63819;BME280;49970;54.976;73.248;2023-10-13T05:15:54;100719.56;;;6.59;63.96
63819;BME280;49970;54.976;73.248;2023-10-13T05:18:39;100715.94;;;6.62;63.53
63819;BME280;49970;54.976;73.248;2023-10-13T05:21:24;100721.13;;;6.63;63.71
63819;BME280;49970;54.976;73.248;2023-10-13T05:24:09;100703.63;;;6.62;63.57
63819;BME280;49970;54.976;73.248;2023-10-13T05:26:54;100697.16;;;6.69;63.77
63819;BME280;49970;54.976;73.248;2023-10-13T05:29:44;100697.41;;;6.82;63.93
63819;BME280;49970;54.976;73.248;2023-10-13T05:32:29;100685.22;;;6.97;63.43
63819;BME280;49970;54.976;73.248;2023-10-13T05:35:15;100658.66;;;7.02;63.24
63819;BME280;49970;54.976;73.248;2023-10-13T05:38:00;100685.41;;;7.29;63.63
63819;BME280;49970;54.976;73.248;2023-10-13T05:41:02;100681.94;;;7.44;62.51
63819;BME280;49970;54.976;73.248;2023-10-13T05:43:47;100675.03;;;7.59;62.27
63819;BME280;49970;54.976;73.248;2023-10-13T05:46:32;100684.13;;;7.69;61.59
63819;BME280;49970;54.976;73.248;2023-10-13T05:49:08;100678.41;;;7.78;61.18
63819;BME280;49970;54.976;73.248;2023-10-13T05:51:38;100689.41;;;7.86;60.96
63819;BME280;49970;54.976;73.248;2023-10-13T05:54:24;100683.63;;;7.95;61.11
63819;BME280;49970;54.976;73.248;2023-10-13T05:58:01;100690.19;;;8.04;60.59
63819;BME280;49970;54.976;73.248;2023-10-13T06:01:11;100690.59;;;8.12;59.66
63819;BME280;49970;54.976;73.248;2023-10-13T06:04:41;100675.28;;;8.19;59.57
63819;BME280;49970;54.976;73.248;2023-10-13T06:08:13;100676.75;;;8.24;59.96
63819;BME280;49970;54.976;73.248;2023-10-13T06:11:49;100658.47;;;8.37;58.86
63819;BME280;49970;54.976;73.248;2023-10-13T06:15:20;100642.25;;;8.43;58.58
63819;BME280;49970;54.976;73.248;2023-10-13T06:18:50;100657.56;;;8.53;58.75
63819;BME280;49970;54.976;73.248;2023-10-13T06:22:01;100630.66;;;8.62;58.49
63819;BME280;49970;54.976;73.248;2023-10-13T06:24:46;100626.72;;;8.69;58.33
63819;BME280;49970;54.976;73.248;2023-10-13T06:27:31;100625.69;;;8.71;57.75
63819;BME280;49970;54.976;73.248;2023-10-13T06:30:15;100610.91;;;8.83;57.78
63819;BME280;49970;54.976;73.248;2023-10-13T06:32:43;100607.34;;;8.84;57.60
63819;BME280;49970;54.976;73.248;2023-10-13T06:35:12;100603.47;;;8.90;56.78
63819;BME280;49970;54.976;73.248;2023-10-13T06:37:51;100596.16;;;8.95;56.91
63819;BME280;49970;54.976;73.248;2023-10-13T06:40:17;100606.44;;;9.00;57.63
63819;BME280;49970;54.976;73.248;2023-10-13T06:42:59;100597.16;;;9.07;56.25
63819;BME280;49970;54.976;73.248;2023-10-13T06:45:50;100589.47;;;9.18;55.83
63819;BME280;49970;54.976;73.248;2023-10-13T06:48:29;100574.84;;;9.12;56.51
63819;BME280;49970;54.976;73.248;2023-10-13T06:51:07;100585.31;;;9.14;56.13
63819;BME280;49970;54.976;73.248;2023-10-13T06:53:52;100587.09;;;9.13;56.80
63819;BME280;49970;54.976;73.248;2023-10-13T06:56:22;100583.22;;;9.05;56.92
63819;BME280;49970;54.976;73.248;2023-10-13T06:58:54;100585.00;;;9.04;57.20
63819;BME280;49970;54.976;73.248;2023-10-13T07:01:48;100583.50;;;9.14;57.12
63819;BME280;49970;54.976;73.248;2023-10-13T07:05:24;100572.56;;;9.20;56.86
63819;BME280;49970;54.976;73.248;2023-10-13T07:08:36;100561.78;;;9.23;56.92
63819;BME280;49970;54.976;73.248;2023-10-13T07:11:03;100553.31;;;9.33;56.57
63819;BME280;49970;54.976;73.248;2023-10-13T07:13:50;100518.09;;;9.32;56.48
63819;BME280;49970;54.976;73.248;2023-10-13T07:16:18;100550.84;;;9.58;56.08
63819;BME280;49970;54.976;73.248;2023-10-13T07:18:44;100549.47;;;9.65;55.98
63819;BME280;49970;54.976;73.248;2023-10-13T07:21:19;100550.13;;;9.69;55.47
63819;BME280;49970;54.976;73.248;2023-10-13T07:24:16;100546.28;;;9.75;55.26
63819;BME280;49970;54.976;73.248;2023-10-13T07:27:46;100542.38;;;9.80;55.11
63819;BME280;49970;54.976;73.248;2023-10-13T07:31:23;100534.97;;;9.85;54.95
63819;BME280;49970;54.976;73.248;2023-10-13T07:34:36;100525.16;;;9.87;54.46
63819;BME280;49970;54.976;73.248;2023-10-13T07:37:05;100524.56;;;9.96;53.76
63819;BME280;49970;54.976;73.248;2023-10-13T07:39:38;100528.16;;;9.95;52.48
63819;BME280;49970;54.976;73.248;2023-10-13T07:42:06;100522.88;;;9.95;53.07
63819;BME280;49970;54.976;73.248;2023-10-13T07:45:17;100532.84;;;10.05;53.03
63819;BME280;49970;54.976;73.248;2023-10-13T07:47:47;100522.91;;;10.08;52.80
63819;BME280;49970;54.976;73.248;2023-10-13T07:50:35;100515.63;;;10.12;51.85
63819;BME280;49970;54.976;73.248;2023-10-13T07:54:13;100506.75;;;10.13;51.58
63819;BME280;49970;54.976;73.248;2023-10-13T07:57:44;100502.94;;;10.17;51.36
63819;BME280;49970;54.976;73.248;2023-10-13T08:01:21;100484.78;;;10.25;48.92
63819;BME280;49970;54.976;73.248;2023-10-13T08:03:47;100491.56;;;10.29;49.26
63819;BME280;49970;54.976;73.248;2023-10-13T08:06:42;100493.13;;;10.32;47.79
63819;BME280;49970;54.976;73.248;2023-10-13T08:09:37;100486.16;;;10.31;48.04
63819;BME280;49970;54.976;73.248;2023-10-13T08:12:07;100471.53;;;10.25;48.24
63819;BME280;49970;54.976;73.248;2023-10-13T08:14:38;100464.84;;;10.32;48.97
63819;BME280;49970;54.976;73.248;2023-10-13T08:17:09;100477.59;;;10.40;48.16
63819;BME280;49970;54.976;73.248;2023-10-13T08:19:36;100462.78;;;10.37;48.29
63819;BME280;49970;54.976;73.248;2023-10-13T08:22:06;100444.88;;;10.41;48.69
63819;BME280;49970;54.976;73.248;2023-10-13T08:24:44;100456.66;;;10.50;47.22
63819;BME280;49970;54.976;73.248;2023-10-13T08:27:12;100449.44;;;10.52;46.59
63819;BME280;49970;54.976;73.248;2023-10-13T08:29:45;100451.66;;;10.58;45.73
63819;BME280;49970;54.976;73.248;2023-10-13T08:32:35;100457.91;;;10.57;45.80
63819;BME280;49970;54.976;73.248;2023-10-13T08:35:43;100445.72;;;10.54;45.85
63819;BME280;49970;54.976;73.248;2023-10-13T08:39:38;100450.50;;;10.62;45.02
63819;BME280;49970;54.976;73.248;2023-10-13T08:43:34;100455.25;;;10.69;45.38
63819;BME280;49970;54.976;73.248;2023-10-13T08:47:30;100458.13;;;10.79;44.84
63819;BME280;49970;54.976;73.248;2023-10-13T08:51:26;100448.78;;;10.86;44.53
63819;BME280;49970;54.976;73.248;2023-10-13T08:55:22;100449.94;;;10.95;45.87
63819;BME280;49970;54.976;73.248;2023-10-13T08:58:35;100438.06;;;11.01;44.79
63819;BME280;49970;54.976;73.248;2023-10-13T09:04:12;100439.63;;;11.03;45.07
63819;BME280;49970;54.976;73.248;2023-10-13T09:06:50;100435.94;;;11.06;44.70
63819;BME280;49970;54.976;73.248;2023-10-13T09:09:26;100434.25;;;11.05;44.33
63819;BME280;49970;54.976;73.248;2023-10-13T09:11:56;100430.50;;;11.07;43.87
63819;BME280;49970;54.976;73.248;2023-10-13T09:14:35;100437.53;;;11.08;43.74
63819;BME280;49970;54.976;73.248;2023-10-13T09:17:05;100435.81;;;11.07;43.98
63819;BME280;49970;54.976;73.248;2023-10-13T09:19:49;100435.59;;;11.10;43.49
63819;BME280;49970;54.976;73.248;2023-10-13T09:22:26;100425.44;;;11.04;43.30
63819;BME280;49970;54.976;73.248;2023-10-13T09:25:03;100416.88;;;11.01;43.34
63819;BME280;49970;54.976;73.248;2023-10-13T09:27:32;100415.88;;;11.14;43.51
63819;BME280;49970;54.976;73.248;2023-10-13T09:30:00;100428.91;;;11.17;43.52
63819;BME280;49970;54.976;73.248;2023-10-13T09:32:35;100426.47;;;11.14;43.72
63819;BME280;49970;54.976;73.248;2023-10-13T09:35:18;100415.03;;;11.14;43.68
63819;BME280;49970;54.976;73.248;2023-10-13T09:37:50;100420.31;;;11.14;43.77
63819;BME280;49970;54.976;73.248;2023-10-13T09:40:17;100416.72;;;11.15;43.56
63819;BME280;49970;54.976;73.248;2023-10-13T09:43:00;100412.25;;;11.15;43.53
63819;BME280;49970;54.976;73.248;2023-10-13T09:45:31;100407.06;;;11.14;43.83
63819;BME280;49970;54.976;73.248;2023-10-13T09:48:10;100413.34;;;11.13;44.15
63819;BME280;49970;54.976;73.248;2023-10-13T09:50:45;100374.13;;;11.05;43.69
63819;BME280;49970;54.976;73.248;2023-10-13T09:53:15;100388.41;;;11.15;43.77
63819;BME280;49970;54.976;73.248;2023-10-13T09:55:51;100381.28;;;11.16;44.41
63819;BME280;49970;54.976;73.248;2023-10-13T09:58:21;100378.53;;;11.17;44.06
63819;BME280;49970;54.976;73.248;2023-10-13T10:00:57;100390.28;;;11.26;43.85
63819;BME280;49970;54.976;73.248;2023-10-13T10:03:24;100387.50;;;11.28;43.16
63819;BME280;49970;54.976;73.248;2023-10-13T10:06:05;100393.44;;;11.31;42.80
63819;BME280;49970;54.976;73.248;2023-10-13T10:08:43;100388.97;;;11.32;42.63
63819;BME280;49970;54.976;73.248;2023-10-13T10:11:23;100395.13;;;11.32;41.70
63819;BME280;49970;54.976;73.248;2023-10-13T10:17:05;100397.69;;;11.34;42.09
63819;BME280;49970;54.976;73.248;2023-10-13T10:19:54;100401.19;;;11.34;42.37
63819;BME280;49970;54.976;73.248;2023-10-13T10:22:27;100382.72;;;11.33;41.91
63819;BME280;49970;54.976;73.248;2023-10-13T10:25:00;100394.78;;;11.37;42.21
63819;BME280;49970;54.976;73.248;2023-10-13T10:27:32;100387.69;;;11.37;41.94
63819;BME280;49970;54.976;73.248;2023-10-13T10:30:00;100387.59;;;11.39;41.98
63819;BME280;49970;54.976;73.248;2023-10-13T10:32:34;100383.13;;;11.39;42.04
63819;BME280;49970;54.976;73.248;2023-10-13T10:35:08;100383.13;;;11.39;42.47
63819;BME280;49970;54.976;73.248;2023-10-13T10:37:40;100381.44;;;11.38;42.33
63819;BME280;49970;54.976;73.248;2023-10-13T10:40:16;100356.31;;;11.31;41.93
63819;BME280;49970;54.976;73.248;2023-10-13T10:43:18;100351.97;;;11.30;41.98
63819;BME280;49970;54.976;73.248;2023-10-13T10:45:48;100364.34;;;11.42;41.83
63819;BME280;49970;54.976;73.248;2023-10-13T10:48:17;100370.59;;;11.41;41.65
63819;BME280;49970;54.976;73.248;2023-10-13T10:50:51;100369.72;;;11.41;41.53
63819;BME280;49970;54.976;73.248;2023-10-13T10:53:21;100379.63;;;11.39;41.68
63819;BME280;49970;54.976;73.248;2023-10-13T10:56:15;100371.66;;;11.39;41.78
63819;BME280;49970;54.976;73.248;2023-10-13T10:58:58;100358.63;;;11.36;41.71
63819;BME280;49970;54.976;73.248;2023-10-13T11:01:28;100354.91;;;11.38;42.00
63819;BME280;49970;54.976;73.248;2023-10-13T11:04:07;100360.22;;;11.38;41.61
63819;BME280;49970;54.976;73.248;2023-10-13T11:06:37;100358.53;;;11.37;41.76
63819;BME280;49970;54.976;73.248;2023-10-13T11:09:12;100345.38;;;11.36;41.92
63819;BME280;49970;54.976;73.248;2023-10-13T11:11:47;100346.47;;;11.33;41.38
63819;BME280;49970;54.976;73.248;2023-10-13T11:17:50;100361.75;;;11.30;41.64
63819;BME280;49970;54.976;73.248;2023-10-13T11:20:25;100346.50;;;11.20;42.02
63819;BME280;49970;54.976;73.248;2023-10-13T11:22:52;100356.03;;;11.23;42.18
63819;BME280;49970;54.976;73.248;2023-10-13T11:25:26;100355.41;;;11.19;42.13
63819;BME280;49970;54.976;73.248;2023-10-13T11:28:17;100328.31;;;11.03;42.44
63819;BME280;49970;54.976;73.248;2023-10-13T11:30:44;100361.03;;;11.15;43.07
63819;BME280;49970;54.976;73.248;2023-10-13T11:33:34;100355.09;;;11.11;42.69
63819;BME280;49970;54.976;73.248;2023-10-13T11:36:03;100369.31;;;11.10;42.61
63819;BME280;49970;54.976;73.248;2023-10-13T11:38:31;100360.75;;;11.07;42.87
63819;BME280;49970;54.976;73.248;2023-10-13T11:41:07;100351.31;;;11.03;42.81
63819;BME280;49970;54.976;73.248;2023-10-13T11:43:44;100336.94;;;10.94;43.14
63819;BME280;49970;54.976;73.248;2023-10-13T11:46:22;100343.81;;;10.96;42.98
63819;BME280;49970;54.976;73.248;2023-10-13T11:49:04;100356.44;;;10.93;43.40
63819;BME280;49970;54.976;73.248;2023-10-13T11:51:40;100350.53;;;10.89;43.49
63819;BME280;49970;54.976;73.248;2023-10-13T11:54:18;100359.66;;;10.85;43.72
63819;BME280;49970;54.976;73.248;2023-10-13T11:56:46;100358.16;;;10.81;43.67
63819;BME280;49970;54.976;73.248;2023-10-13T12:02:42;100357.13;;;10.71;44.02
63819;BME280;49970;54.976;73.248;2023-10-13T12:05:27;100354.91;;;10.65;43.98
63819;BME280;49970;54.976;73.248;2023-10-13T12:08:08;100361.28;;;10.62;44.75
63819;BME280;49970;54.976;73.248;2023-10-13T12:10:47;100361.91;;;10.53;44.14
63819;BME280;49970;54.976;73.248;2023-10-13T12:13:26;100355.69;;;10.54;44.32
63819;BME280;49970;54.976;73.248;2023-10-13T12:15:52;100354.94;;;10.52;44.26
63819;BME280;49970;54.976;73.248;2023-10-13T12:18:22;100356.72;;;10.52;44.32
63819;BME280;49970;54.976;73.248;2023-10-13T12:21:10;100353.38;;;10.50;44.73
63819;BME280;49970;54.976;73.248;2023-10-13T12:23:39;100346.59;;;10.45;44.43
63819;BME280;49970;54.976;73.248;2023-10-13T12:26:05;100349.44;;;10.42;45.01
63819;BME280;49970;54.976;73.248;2023-10-13T12:28:48;100342.03;;;10.35;44.89
63819;BME280;49970;54.976;73.248;2023-10-13T12:31:31;100359.50;;;10.37;44.73
63819;BME280;49970;54.976;73.248;2023-10-13T12:33:58;100356.03;;;10.37;45.08
63819;BME280;49970;54.976;73.248;2023-10-13T12:36:49;100359.72;;;10.34;44.82
63819;BME280;49970;54.976;73.248;2023-10-13T12:39:31;100353.91;;;10.29;45.15
63819;BME280;49970;54.976;73.248;2023-10-13T12:42:27;100368.06;;;10.28;45.22
63819;BME280;49970;54.976;73.248;2023-10-13T12:45:11;100365.72;;;10.23;45.46
63819;BME280;49970;54.976;73.248;2023-10-13T12:47:56;100365.09;;;10.20;45.50
63819;BME280;49970;54.976;73.248;2023-10-13T12:51:00;100374.94;;;10.18;45.57
63819;BME280;49970;54.976;73.248;2023-10-13T12:54:31;100371.75;;;10.13;45.42
63819;BME280;49970;54.976;73.248;2023-10-13T12:58:07;100367.63;;;10.09;45.48
63819;BME280;49970;54.976;73.248;2023-10-13T13:01:38;100373.09;;;10.06;45.22
63819;BME280;49970;54.976;73.248;2023-10-13T13:04:19;100382.09;;;10.03;45.41
63819;BME280;49970;54.976;73.248;2023-10-13T13:07:11;100376.06;;;10.01;45.42
63819;BME280;49970;54.976;73.248;2023-10-13T13:10:00;100358.19;;;9.92;45.24
63819;BME280;49970;54.976;73.248;2023-10-13T13:13:36;100363.16;;;9.96;45.28
63819;BME280;49970;54.976;73.248;2023-10-13T13:16:03;100360.63;;;9.95;45.67
63819;BME280;49970;54.976;73.248;2023-10-13T13:18:53;100371.28;;;9.93;44.96
63819;BME280;49970;54.976;73.248;2023-10-13T13:21:23;100372.38;;;9.91;45.00
63819;BME280;49970;54.976;73.248;2023-10-13T13:23:51;100374.13;;;9.90;44.92
63819;BME280;49970;54.976;73.248;2023-10-13T13:26:17;100382.06;;;9.90;45.27
63819;BME280;49970;54.976;73.248;2023-10-13T13:28:56;100377.00;;;9.87;44.60
63819;BME280;49970;54.976;73.248;2023-10-13T13:31:52;100375.94;;;9.90;45.13
63819;BME280;49970;54.976;73.248;2023-10-13T13:35:48;100377.94;;;9.86;44.74
63819;BME280;49970;54.976;73.248;2023-10-13T13:38:30;100377.22;;;9.84;44.33
63819;BME280;49970;54.976;73.248;2023-10-13T13:40:58;100374.69;;;9.83;44.37
63819;BME280;49970;54.976;73.248;2023-10-13T13:43:49;100377.31;;;9.83;44.75
63819;BME280;49970;54.976;73.248;2023-10-13T13:47:23;100374.69;;;9.83;43.98
63819;BME280;49970;54.976;73.248;2023-10-13T13:51:02;100379.97;;;9.83;43.54
63819;BME280;49970;54.976;73.248;2023-10-13T13:54:55;100383.66;;;9.80;43.83
63819;BME280;49970;54.976;73.248;2023-10-13T13:58:46;100387.34;;;9.78;43.02
63819;BME280;49970;54.976;73.248;2023-10-13T14:02:41;100383.84;;;9.77;43.67
63819;BME280;49970;54.976;73.248;2023-10-13T14:06:37;100370.75;;;9.76;42.65
63819;BME280;49970;54.976;73.248;2023-10-13T14:10:33;100386.50;;;9.77;42.84
63819;BME280;49970;54.976;73.248;2023-10-13T14:14:10;100373.38;;;9.76;43.60
63819;BME280;49970;54.976;73.248;2023-10-13T14:17:40;100372.44;;;9.77;42.54
63819;BME280;49970;54.976;73.248;2023-10-13T14:24:40;100362.16;;;9.72;43.10
63819;BME280;49970;54.976;73.248;2023-10-13T14:28:11;100372.94;;;9.69;43.12
63819;BME280;49970;54.976;73.248;2023-10-13T14:31:22;100346.56;;;9.55;43.59
63819;BME280;49970;54.976;73.248;2023-10-13T14:33:48;100366.91;;;9.67;43.28
63819;BME280;49970;54.976;73.248;2023-10-13T14:36:14;100373.25;;;9.64;43.15
63819;BME280;49970;54.976;73.248;2023-10-13T14:38:49;100374.19;;;9.63;43.88
63819;BME280;49970;54.976;73.248;2023-10-13T14:41:16;100380.53;;;9.61;43.75
63819;BME280;49970;54.976;73.248;2023-10-13T14:43:46;100356.91;;;9.45;42.81
63819;BME280;49970;54.976;73.248;2023-10-13T14:46:19;100378.94;;;9.58;43.17
63819;BME280;49970;54.976;73.248;2023-10-13T14:48:52;100372.25;;;9.53;44.16